createdAt,value
2022-12-25T00:00:02.554Z,10.88
2022-12-25T00:02:31.943Z,10.32
2022-12-25T00:04:59.256Z,10.02
2022-12-25T00:07:26.726Z,9.52
2022-12-25T00:09:54.031Z,11.82
2022-12-25T00:12:22.488Z,9.75
2022-12-25T00:14:49.787Z,6.50
2022-12-25T00:17:17.263Z,6.93
2022-12-25T00:19:44.571Z,6.47
2022-12-25T00:22:11.821Z,9.68
2022-12-25T00:24:39.136Z,10.20
2022-12-25T00:27:06.463Z,11.85
2022-12-25T00:29:33.792Z,7.65
2022-12-25T00:32:01.115Z,10.18
2022-12-25T00:34:28.492Z,8.57
2022-12-25T00:36:55.768Z,8.02
2022-12-25T00:39:23.130Z,9.38
2022-12-25T00:42:08.970Z,9.65
2022-12-25T00:44:36.238Z,9.30
2022-12-25T00:47:03.833Z,10.05
2022-12-25T00:49:31.181Z,10.20
2022-12-25T00:51:58.483Z,9.52
2022-12-25T00:54:25.765Z,6.85
2022-12-25T00:56:53.049Z,10.63
2022-12-25T00:59:20.333Z,9.60
2022-12-25T01:01:47.824Z,9.10
2022-12-25T01:04:15.238Z,9.13
2022-12-25T01:06:42.565Z,9.98
2022-12-25T01:09:28.683Z,9.50
2022-12-25T01:11:55.902Z,9.52
2022-12-25T01:14:23.118Z,8.85
2022-12-25T01:16:50.377Z,8.02
2022-12-25T01:19:17.793Z,9.73
2022-12-25T01:21:45.107Z,9.15
2022-12-25T01:24:12.630Z,8.82
2022-12-25T01:26:39.903Z,9.65
2022-12-25T01:29:07.141Z,9.43
2022-12-25T01:31:34.422Z,9.82
2022-12-25T01:34:01.699Z,9.48
2022-12-25T01:36:28.959Z,10.27
2022-12-25T01:38:56.401Z,8.93
2022-12-25T01:41:24.872Z,9.10
2022-12-25T01:43:58.122Z,7.00
2022-12-25T01:46:25.491Z,10.52
2022-12-25T01:48:53.695Z,7.72
2022-12-25T01:51:27.124Z,10.82
2022-12-25T01:53:55.535Z,8.68
2022-12-25T01:56:23.003Z,8.98
2022-12-25T01:58:50.373Z,9.48
2022-12-25T02:01:17.886Z,9.20
2022-12-25T02:03:45.332Z,8.32
2022-12-25T02:06:12.596Z,10.02
2022-12-25T02:08:41.566Z,10.60
2022-12-25T02:11:29.615Z,8.00
2022-12-25T02:13:56.957Z,9.45
2022-12-25T02:16:29.770Z,9.43
2022-12-25T02:19:05.783Z,8.70
2022-12-25T02:21:51.961Z,5.45
2022-12-25T02:24:25.370Z,9.52
2022-12-25T02:27:11.533Z,10.20
2022-12-25T02:29:39.426Z,9.50
2022-12-25T02:32:16.069Z,9.75
2022-12-25T02:37:10.437Z,8.20
2022-12-25T02:40:00.614Z,10.98
2022-12-25T02:42:47.916Z,9.63
2022-12-25T02:45:35.687Z,10.52
2022-12-25T02:48:22.544Z,9.77
2022-12-25T02:51:09.477Z,9.35
2022-12-25T02:53:55.667Z,10.95
2022-12-25T02:56:42.554Z,8.43
2022-12-25T02:59:28.935Z,8.85
2022-12-25T03:02:15.708Z,9.77
2022-12-25T03:05:02.854Z,9.98
2022-12-25T03:07:30.454Z,10.20
2022-12-25T03:10:19.457Z,9.80
2022-12-25T03:15:32.852Z,10.25
2022-12-25T03:18:02.199Z,10.55
2022-12-25T03:20:49.388Z,11.43
2022-12-25T03:23:37.726Z,10.45
2022-12-25T03:26:23.892Z,5.80
2022-12-25T03:28:51.062Z,9.63
2022-12-25T03:31:34.075Z,9.48
2022-12-25T03:34:19.791Z,11.15
2022-12-25T03:37:02.443Z,11.48
2022-12-25T03:39:57.635Z,9.77
2022-12-25T03:42:56.336Z,10.30
2022-12-25T03:45:48.584Z,7.90
2022-12-25T03:48:35.010Z,10.25
2022-12-25T03:51:23.203Z,11.07
2022-12-25T03:54:12.509Z,11.00
2022-12-25T03:56:59.115Z,8.70
2022-12-25T03:59:44.811Z,9.25
2022-12-25T04:02:30.686Z,10.50
2022-12-25T04:05:16.541Z,11.63
2022-12-25T04:08:02.355Z,11.55
2022-12-25T04:10:48.211Z,10.20
2022-12-25T04:13:34.473Z,9.05
2022-12-25T04:16:20.395Z,9.38
2022-12-25T04:19:06.214Z,9.00
2022-12-25T04:21:51.921Z,9.55
2022-12-25T04:24:37.647Z,10.48
2022-12-25T04:27:23.527Z,9.15
2022-12-25T04:30:09.319Z,10.15
2022-12-25T04:32:55.134Z,10.30
2022-12-25T04:35:40.985Z,9.02
2022-12-25T04:38:08.219Z,10.23
2022-12-25T04:40:35.921Z,5.75
2022-12-25T04:43:03.299Z,6.95
2022-12-25T04:45:30.552Z,7.82
2022-12-25T04:47:59.898Z,9.02
2022-12-25T04:50:27.071Z,8.20
2022-12-25T04:52:54.288Z,7.10
2022-12-25T04:55:21.601Z,9.02
2022-12-25T04:57:48.911Z,8.30
2022-12-25T05:00:16.301Z,9.00
2022-12-25T05:02:43.810Z,8.35
2022-12-25T05:05:11.165Z,9.82
2022-12-25T05:07:38.440Z,6.18
2022-12-25T05:10:05.928Z,8.45
2022-12-25T05:12:33.350Z,7.22
2022-12-25T05:15:00.660Z,7.38
2022-12-25T05:17:27.949Z,7.72
2022-12-25T05:19:55.125Z,7.70
2022-12-25T05:22:22.532Z,7.53
2022-12-25T05:24:49.807Z,7.03
2022-12-25T05:27:17.109Z,7.35
2022-12-25T05:29:44.359Z,6.60
2022-12-25T05:32:11.599Z,7.25
2022-12-25T05:34:38.865Z,6.32
2022-12-25T05:37:06.756Z,7.68
2022-12-25T05:39:34.322Z,6.90
2022-12-25T05:42:01.621Z,5.70
2022-12-25T05:44:31.386Z,7.65
2022-12-25T05:46:58.719Z,6.88
2022-12-25T05:49:26.089Z,6.53
2022-12-25T05:51:53.404Z,6.80
2022-12-25T05:54:20.859Z,6.25
2022-12-25T05:56:48.185Z,6.47
2022-12-25T05:59:15.470Z,6.35
2022-12-25T06:01:42.877Z,6.00
2022-12-25T06:04:12.793Z,5.30
2022-12-25T06:06:40.769Z,5.50
2022-12-25T06:09:08.097Z,6.18
2022-12-25T06:11:35.365Z,5.97
2022-12-25T06:14:02.637Z,4.97
2022-12-25T06:16:37.189Z,6.70
2022-12-25T06:19:05.519Z,5.32
2022-12-25T06:21:32.927Z,6.30
2022-12-25T06:24:00.728Z,5.72
2022-12-25T06:26:28.658Z,5.70
2022-12-25T06:28:55.943Z,5.38
2022-12-25T06:31:25.471Z,6.07
2022-12-25T06:33:52.877Z,5.57
2022-12-25T06:36:21.928Z,5.45
2022-12-25T06:38:49.462Z,5.90
2022-12-25T06:41:18.053Z,6.50
2022-12-25T06:43:49.286Z,6.00
2022-12-25T06:46:17.350Z,4.80
2022-12-25T06:48:50.627Z,4.97
2022-12-25T06:51:22.655Z,4.85
2022-12-25T06:53:50.745Z,5.00
2022-12-25T06:56:19.316Z,5.65
2022-12-25T06:58:48.259Z,5.90
2022-12-25T07:01:26.102Z,5.10
2022-12-25T07:03:55.587Z,6.18
2022-12-25T07:06:23.038Z,5.43
2022-12-25T07:08:50.409Z,4.20
2022-12-25T07:11:17.659Z,5.85
2022-12-25T07:13:45.223Z,6.00
2022-12-25T07:16:13.455Z,5.68
2022-12-25T07:18:42.977Z,5.28
2022-12-25T07:21:12.054Z,5.85
2022-12-25T07:23:39.342Z,6.00
2022-12-25T07:26:06.608Z,5.45
2022-12-25T07:28:34.037Z,5.43
2022-12-25T07:31:02.087Z,5.65
2022-12-25T07:33:29.445Z,5.82
2022-12-25T07:35:56.662Z,5.20
2022-12-25T07:38:23.992Z,5.47
2022-12-25T07:40:51.327Z,5.32
2022-12-25T07:43:18.697Z,5.50
2022-12-25T07:45:46.007Z,6.07
2022-12-25T07:48:16.625Z,5.95
2022-12-25T07:50:44.991Z,6.38
2022-12-25T07:53:25.077Z,6.28
2022-12-25T07:56:02.534Z,6.15
2022-12-25T07:58:30.193Z,5.43
2022-12-25T08:01:03.055Z,6.25
2022-12-25T08:03:30.574Z,6.55
2022-12-25T08:06:01.813Z,6.25
2022-12-25T08:08:29.321Z,6.40
2022-12-25T08:10:57.849Z,6.13
2022-12-25T08:13:25.125Z,6.43
2022-12-25T08:15:57.553Z,3.90
2022-12-25T08:18:29.977Z,6.40
2022-12-25T08:20:57.939Z,6.03
2022-12-25T08:23:25.187Z,6.28
2022-12-25T08:25:52.465Z,5.88
2022-12-25T08:28:19.857Z,5.75
2022-12-25T08:30:47.060Z,5.20
2022-12-25T08:33:39.599Z,6.28
2022-12-25T08:36:13.882Z,6.78
2022-12-25T08:38:43.954Z,6.13
2022-12-25T08:41:11.911Z,5.72
2022-12-25T08:43:39.507Z,5.82
2022-12-25T08:46:07.442Z,5.70
2022-12-25T08:48:35.169Z,6.25
2022-12-25T08:51:02.854Z,6.55
2022-12-25T08:53:30.241Z,4.88
2022-12-25T08:56:03.768Z,5.72
2022-12-25T08:58:31.115Z,4.90
2022-12-25T09:00:58.662Z,5.45
2022-12-25T09:03:26.061Z,5.20
2022-12-25T09:05:54.184Z,5.30
2022-12-25T09:08:21.956Z,4.75
2022-12-25T09:10:49.678Z,4.70
2022-12-25T09:13:16.942Z,3.25
2022-12-25T09:15:44.359Z,4.70
2022-12-25T09:18:12.125Z,5.32
2022-12-25T09:20:39.375Z,4.97
2022-12-25T09:23:13.325Z,4.53
2022-12-25T09:25:43.369Z,4.35
2022-12-25T09:28:10.740Z,5.28
2022-12-25T09:30:38.072Z,4.93
2022-12-25T09:33:05.352Z,3.88
2022-12-25T09:35:32.615Z,5.05
2022-12-25T09:37:59.920Z,4.55
2022-12-25T09:40:29.180Z,3.90
2022-12-25T09:42:56.643Z,4.85
2022-12-25T09:45:26.770Z,4.93
2022-12-25T09:47:56.503Z,4.68
2022-12-25T09:50:29.208Z,4.72
2022-12-25T09:53:32.657Z,4.32
2022-12-25T09:56:03.978Z,4.20
2022-12-25T09:58:33.013Z,4.30
2022-12-25T10:01:20.603Z,3.72
2022-12-25T10:03:51.044Z,4.32
2022-12-25T10:06:23.261Z,5.03
2022-12-25T10:09:09.148Z,4.43
2022-12-25T10:11:56.278Z,5.10
2022-12-25T10:14:31.865Z,5.47
2022-12-25T10:17:19.252Z,5.25
2022-12-25T10:20:06.310Z,5.60
2022-12-25T10:22:42.932Z,4.97
2022-12-25T10:25:16.195Z,4.47
2022-12-25T10:27:43.852Z,5.05
2022-12-25T10:30:15.240Z,5.50
2022-12-25T10:32:42.820Z,3.97
2022-12-25T10:35:14.103Z,4.95
2022-12-25T10:37:41.731Z,5.93
2022-12-25T10:40:25.300Z,6.28
2022-12-25T10:42:58.265Z,5.78
2022-12-25T10:45:25.453Z,5.20
2022-12-25T10:48:07.084Z,5.80
2022-12-25T10:50:34.822Z,5.65
2022-12-25T10:53:08.623Z,5.90
2022-12-25T10:55:36.106Z,5.35
2022-12-25T10:58:03.321Z,5.53
2022-12-25T11:00:32.146Z,5.57
2022-12-25T11:03:00.044Z,5.50
2022-12-25T11:05:31.750Z,5.50
2022-12-25T11:08:00.469Z,5.63
2022-12-25T11:10:36.434Z,5.53
2022-12-25T11:13:06.721Z,5.75
2022-12-25T11:18:01.212Z,5.00
2022-12-25T11:20:28.505Z,5.63
2022-12-25T11:22:55.874Z,7.15
2022-12-25T11:25:27.636Z,6.43
2022-12-25T11:28:02.543Z,6.07
2022-12-25T11:30:30.748Z,6.28
2022-12-25T11:32:59.787Z,6.68
2022-12-25T11:35:31.222Z,5.43
2022-12-25T11:37:58.482Z,5.85
2022-12-25T11:40:32.917Z,7.03
2022-12-25T11:43:20.454Z,6.90
2022-12-25T11:45:50.050Z,6.70
2022-12-25T11:48:23.926Z,6.05
2022-12-25T11:50:54.158Z,6.35
2022-12-25T11:53:25.946Z,6.32
2022-12-25T11:55:54.965Z,6.95
2022-12-25T11:58:25.298Z,6.53
2022-12-25T12:00:54.573Z,6.15
2022-12-25T12:03:39.229Z,6.35
2022-12-25T12:06:06.688Z,6.32
2022-12-25T12:08:34.656Z,6.32
2022-12-25T12:11:16.175Z,5.75
2022-12-25T12:13:52.789Z,6.72
2022-12-25T12:16:20.131Z,6.53
2022-12-25T12:18:50.572Z,6.28
2022-12-25T12:21:25.755Z,7.03
2022-12-25T12:23:55.907Z,6.97
2022-12-25T12:26:27.907Z,6.88
2022-12-25T12:28:57.301Z,7.07
2022-12-25T12:31:24.598Z,7.20
2022-12-25T12:33:56.700Z,7.00
2022-12-25T12:36:35.771Z,7.80
2022-12-25T12:39:05.284Z,6.88
2022-12-25T12:41:48.164Z,7.65
2022-12-25T12:46:50.980Z,7.25
2022-12-25T12:49:18.964Z,7.80
2022-12-25T12:51:46.275Z,7.72
2022-12-25T12:54:20.527Z,7.07
2022-12-25T12:56:58.516Z,7.93
2022-12-25T12:59:26.735Z,9.55
2022-12-25T13:02:06.237Z,8.52
2022-12-25T13:04:46.326Z,8.95
2022-12-25T13:07:32.412Z,8.38
2022-12-25T13:10:05.771Z,9.27
2022-12-25T13:12:33.126Z,6.95
2022-12-25T13:15:01.213Z,13.05
2022-12-25T13:17:28.563Z,8.70
2022-12-25T13:19:57.287Z,9.65
2022-12-25T13:22:50.677Z,9.27
2022-12-25T13:25:23.500Z,9.02
2022-12-25T13:27:57.683Z,8.13
2022-12-25T13:30:25.197Z,8.75
2022-12-25T13:32:52.458Z,9.10
2022-12-25T13:35:21.286Z,8.85
2022-12-25T13:37:48.950Z,7.63
2022-12-25T13:40:26.863Z,9.85
2022-12-25T13:42:57.354Z,9.93
2022-12-25T13:45:48.897Z,8.98
2022-12-25T13:48:25.687Z,9.57
2022-12-25T13:50:59.761Z,8.13
2022-12-25T13:53:27.180Z,9.18
2022-12-25T13:55:55.843Z,8.88
2022-12-25T13:58:27.945Z,8.40
2022-12-25T14:00:57.163Z,8.38
2022-12-25T14:03:27.379Z,7.53
2022-12-25T14:06:13.260Z,8.18
2022-12-25T14:08:43.445Z,9.13
2022-12-25T14:11:11.331Z,9.23
2022-12-25T14:13:41.673Z,9.25
2022-12-25T14:16:09.870Z,9.65
2022-12-25T14:18:37.512Z,9.38
2022-12-25T14:21:04.867Z,10.10
2022-12-25T14:23:42.077Z,10.00
2022-12-25T14:26:15.842Z,10.43
2022-12-25T14:28:43.089Z,9.85
2022-12-25T14:31:12.306Z,8.40
2022-12-25T14:33:39.945Z,9.68
2022-12-25T14:36:07.672Z,9.40
2022-12-25T14:38:35.506Z,9.82
2022-12-25T14:41:07.666Z,9.38
2022-12-25T14:43:36.351Z,10.05
2022-12-25T14:46:08.078Z,11.65
2022-12-25T14:48:35.612Z,10.23
2022-12-25T14:51:29.278Z,7.47
2022-12-25T14:53:57.823Z,8.65
2022-12-25T14:56:26.183Z,9.48
2022-12-25T14:58:55.025Z,9.30
2022-12-25T15:01:36.052Z,8.20
2022-12-25T15:04:05.052Z,9.50
2022-12-25T15:06:32.925Z,9.00
2022-12-25T15:09:06.386Z,9.57
2022-12-25T15:11:33.630Z,9.43
2022-12-25T15:14:11.533Z,9.13
2022-12-25T15:16:41.760Z,8.70
2022-12-25T15:19:10.536Z,9.48
2022-12-25T15:21:38.028Z,9.35
2022-12-25T15:24:05.348Z,8.93
2022-12-25T15:26:32.944Z,9.02
2022-12-25T15:29:00.272Z,8.75
2022-12-25T15:31:28.691Z,8.73
2022-12-25T15:33:57.013Z,9.75
2022-12-25T15:36:24.751Z,10.30
2022-12-25T15:38:52.618Z,9.73
2022-12-25T15:41:47.093Z,9.70
2022-12-25T15:44:15.370Z,12.98
2022-12-25T15:46:42.955Z,12.40
2022-12-25T15:49:11.384Z,11.48
2022-12-25T15:51:41.385Z,10.85
2022-12-25T15:54:08.897Z,10.55
2022-12-25T15:56:59.436Z,10.52
2022-12-25T15:59:26.640Z,10.98
2022-12-25T16:01:58.757Z,10.65
2022-12-25T16:04:28.029Z,11.35
2022-12-25T16:06:58.386Z,10.18
2022-12-25T16:11:54.438Z,11.45
2022-12-25T16:14:21.875Z,13.50
2022-12-25T16:16:49.207Z,11.13
2022-12-25T16:19:16.420Z,11.18
2022-12-25T16:21:44.879Z,14.57
2022-12-25T16:24:12.537Z,9.30
2022-12-25T16:26:43.637Z,9.50
2022-12-25T16:29:11.420Z,10.70
2022-12-25T16:31:40.457Z,10.52
2022-12-25T16:34:08.084Z,10.57
2022-12-25T16:36:35.427Z,10.95
2022-12-25T16:39:02.935Z,11.35
2022-12-25T16:41:30.229Z,12.35
2022-12-25T16:43:57.444Z,12.27
2022-12-25T16:46:24.767Z,11.00
2022-12-25T16:48:52.029Z,11.18
2022-12-25T16:51:20.428Z,11.02
2022-12-25T16:53:47.719Z,10.52
2022-12-25T16:56:16.229Z,13.95
2022-12-25T16:58:45.749Z,12.25
2022-12-25T17:01:14.619Z,11.27
2022-12-25T17:03:41.829Z,12.45
2022-12-25T17:06:25.585Z,11.82
2022-12-25T17:08:53.430Z,11.45
2022-12-25T17:11:24.252Z,11.75
2022-12-25T17:13:51.528Z,13.10
2022-12-25T17:16:20.229Z,12.68
2022-12-25T17:18:47.498Z,13.55
2022-12-25T17:21:14.802Z,11.68
2022-12-25T17:23:43.167Z,13.70
2022-12-25T17:26:10.316Z,18.30
2022-12-25T17:28:37.519Z,13.27
2022-12-25T17:31:09.438Z,13.85
2022-12-25T17:33:37.020Z,12.77
2022-12-25T17:36:05.364Z,11.85
2022-12-25T17:38:33.305Z,12.75
2022-12-25T17:41:01.381Z,11.43
2022-12-25T17:43:28.567Z,11.73
2022-12-25T17:45:55.772Z,14.32
2022-12-25T17:48:22.987Z,13.45
2022-12-25T17:50:50.277Z,16.30
2022-12-25T17:53:17.527Z,20.98
2022-12-25T17:55:44.755Z,15.35
2022-12-25T17:58:12.214Z,13.93
2022-12-25T18:00:41.665Z,13.65
2022-12-25T18:03:11.651Z,13.90
2022-12-25T18:05:40.176Z,13.68
2022-12-25T18:08:07.315Z,13.93
2022-12-25T18:10:38.370Z,13.13
2022-12-25T18:13:05.622Z,13.80
2022-12-25T18:15:33.084Z,12.40
2022-12-25T18:18:00.290Z,16.15
2022-12-25T18:20:31.808Z,14.80
2022-12-25T18:23:01.651Z,16.27
2022-12-25T18:25:28.913Z,17.60
2022-12-25T18:27:56.938Z,21.98
2022-12-25T18:30:24.141Z,27.88
2022-12-25T18:32:51.239Z,15.25
2022-12-25T18:35:18.665Z,14.40
2022-12-25T18:37:48.298Z,13.82
2022-12-25T18:40:15.681Z,13.90
2022-12-25T18:42:43.444Z,13.32
2022-12-25T18:45:12.090Z,15.30
2022-12-25T18:47:39.250Z,15.52
2022-12-25T18:50:07.533Z,21.27
2022-12-25T18:52:47.715Z,21.05
2022-12-25T18:55:17.753Z,23.33
2022-12-25T18:57:45.061Z,27.33
2022-12-25T19:00:12.311Z,27.55
2022-12-25T19:02:39.545Z,27.70
2022-12-25T19:05:07.648Z,25.67
2022-12-25T19:07:34.886Z,25.00
2022-12-25T19:10:02.137Z,26.00
2022-12-25T19:12:29.366Z,25.30
2022-12-25T19:14:56.604Z,22.20
2022-12-25T19:17:31.210Z,22.52
2022-12-25T19:19:58.864Z,20.75
2022-12-25T19:22:26.201Z,16.77
2022-12-25T19:24:53.514Z,19.92
2022-12-25T19:27:20.871Z,18.58
2022-12-25T19:29:48.142Z,19.98
2022-12-25T19:32:15.507Z,25.25
2022-12-25T19:34:42.286Z,26.77
2022-12-25T19:37:09.616Z,19.77
2022-12-25T19:39:36.793Z,20.60
2022-12-25T19:42:04.106Z,26.70
2022-12-25T19:44:31.264Z,33.92
2022-12-25T19:46:58.565Z,35.92
2022-12-25T19:49:26.324Z,31.10
2022-12-25T19:51:53.541Z,26.13
2022-12-25T19:54:20.826Z,26.42
2022-12-25T19:56:48.683Z,21.88
2022-12-25T19:59:16.070Z,16.30
2022-12-25T20:01:43.460Z,14.82
2022-12-25T20:04:11.250Z,12.45
2022-12-25T20:06:39.439Z,13.85
2022-12-25T20:09:08.050Z,14.45
2022-12-25T20:11:35.902Z,21.00
2022-12-25T20:14:03.223Z,19.70
2022-12-25T20:16:30.608Z,12.10
2022-12-25T20:18:58.330Z,12.60
2022-12-25T20:21:27.267Z,14.60
2022-12-25T20:23:54.895Z,13.50
2022-12-25T20:26:23.492Z,13.13
2022-12-25T20:28:51.045Z,15.43
2022-12-25T20:31:27.282Z,15.80
2022-12-25T20:33:55.682Z,13.63
2022-12-25T20:36:22.928Z,18.58
2022-12-25T20:38:50.131Z,15.85
2022-12-25T20:41:28.453Z,17.20
2022-12-25T20:43:56.490Z,17.60
2022-12-25T20:46:24.016Z,14.68
2022-12-25T20:48:52.758Z,15.18
2022-12-25T20:51:21.333Z,14.25
2022-12-25T20:53:48.857Z,14.82
2022-12-25T20:56:17.325Z,15.10
2022-12-25T20:58:44.544Z,14.05
2022-12-25T21:01:13.551Z,15.55
2022-12-25T21:03:41.702Z,17.67
2022-12-25T21:06:09.668Z,16.75
2022-12-25T21:08:36.831Z,17.33
2022-12-25T21:11:04.819Z,16.60
2022-12-25T21:13:33.604Z,14.57
2022-12-25T21:16:01.286Z,17.85
2022-12-25T21:18:28.747Z,17.08
2022-12-25T21:20:57.631Z,15.68
2022-12-25T21:23:26.726Z,15.52
2022-12-25T21:25:54.766Z,15.55
2022-12-25T21:28:22.201Z,14.45
2022-12-25T21:30:49.461Z,14.60
2022-12-25T21:33:35.484Z,15.88
2022-12-25T21:36:11.169Z,14.38
2022-12-25T21:38:38.904Z,15.25
2022-12-25T21:41:07.109Z,16.58
2022-12-25T21:43:35.272Z,16.45
2022-12-25T21:46:04.078Z,13.15
2022-12-25T21:48:31.680Z,18.35
2022-12-25T21:51:25.759Z,16.33
2022-12-25T21:53:53.127Z,17.52
2022-12-25T21:56:20.407Z,14.38
2022-12-25T21:58:48.746Z,15.98
2022-12-25T22:01:16.945Z,14.07
2022-12-25T22:03:44.763Z,14.35
2022-12-25T22:06:31.221Z,14.05
2022-12-25T22:08:58.537Z,12.38
2022-12-25T22:11:45.393Z,13.20
2022-12-25T22:14:52.481Z,13.88
2022-12-25T22:17:41.057Z,11.35
2022-12-25T22:20:10.137Z,13.35
2022-12-25T22:22:37.548Z,11.57
2022-12-25T22:25:06.187Z,12.88
2022-12-25T22:27:34.535Z,13.02
2022-12-25T22:30:01.922Z,13.43
2022-12-25T22:32:29.398Z,11.82
2022-12-25T22:34:56.847Z,13.52
2022-12-25T22:37:25.862Z,12.93
2022-12-25T22:39:53.088Z,13.68
2022-12-25T22:42:20.650Z,12.60
2022-12-25T22:44:47.975Z,13.57
2022-12-25T22:47:15.384Z,11.95
2022-12-25T22:49:42.638Z,12.40
2022-12-25T22:52:10.125Z,13.43
2022-12-25T22:54:37.437Z,13.65
2022-12-25T22:57:05.285Z,13.65
2022-12-25T22:59:35.764Z,10.25
2022-12-25T23:02:03.084Z,12.00
2022-12-25T23:04:30.719Z,12.98
2022-12-25T23:06:57.906Z,12.60
2022-12-25T23:09:27.818Z,10.23
2022-12-25T23:11:56.632Z,8.80
2022-12-25T23:14:40.282Z,11.68
2022-12-25T23:17:28.546Z,8.23
2022-12-25T23:20:14.806Z,10.02
2022-12-25T23:23:01.013Z,8.80
2022-12-25T23:25:46.891Z,10.45
2022-12-25T23:28:14.217Z,10.30
2022-12-25T23:30:41.496Z,9.82
2022-12-25T23:33:08.850Z,10.63
2022-12-25T23:35:36.281Z,9.02
2022-12-25T23:38:05.601Z,8.98
2022-12-25T23:40:32.759Z,8.18
2022-12-25T23:42:59.932Z,8.13
2022-12-25T23:45:27.264Z,10.25
2022-12-25T23:47:54.438Z,8.85
2022-12-25T23:50:21.619Z,8.98
2022-12-25T23:52:48.860Z,8.95
2022-12-25T23:55:16.059Z,7.72
2022-12-25T23:57:43.286Z,9.05
